createdAt,value
2023-05-08T00:00:11.932Z,13.10
2023-05-08T00:02:41.858Z,13.10
2023-05-08T00:05:08.833Z,13.10
2023-05-08T00:07:37.422Z,13.20
2023-05-08T00:10:05.861Z,13.10
2023-05-08T00:12:32.692Z,13.20
2023-05-08T00:14:59.410Z,13.10
2023-05-08T00:17:26.187Z,13.10
2023-05-08T00:19:52.969Z,13.10
2023-05-08T00:22:20.048Z,13.00
2023-05-08T00:24:46.839Z,13.00
2023-05-08T00:27:13.680Z,13.00
2023-05-08T00:29:40.511Z,13.00
2023-05-08T00:32:07.845Z,13.10
2023-05-08T00:34:35.044Z,13.10
2023-05-08T00:37:02.815Z,13.10
2023-05-08T00:39:29.590Z,13.10
2023-05-08T00:41:56.402Z,13.10
2023-05-08T00:44:23.154Z,13.20
2023-05-08T00:46:51.002Z,13.20
2023-05-08T00:49:18.646Z,13.30
2023-05-08T00:51:52.436Z,13.30
2023-05-08T00:54:19.778Z,13.20
2023-05-08T00:56:47.083Z,13.30
2023-05-08T00:59:16.785Z,13.30
2023-05-08T01:01:44.130Z,13.30
2023-05-08T01:04:11.079Z,13.30
2023-05-08T01:06:37.982Z,13.30
2023-05-08T01:09:05.463Z,13.30
2023-05-08T01:12:03.581Z,13.30
2023-05-08T01:14:48.641Z,13.30
2023-05-08T01:17:50.557Z,13.20
2023-05-08T01:20:41.816Z,13.20
2023-05-08T01:23:44.610Z,13.20
2023-05-08T01:26:46.251Z,13.20
2023-05-08T01:30:14.774Z,13.20
2023-05-08T01:32:48.719Z,13.10
2023-05-08T01:35:33.082Z,13.10
2023-05-08T01:38:09.712Z,13.10
2023-05-08T01:41:06.933Z,13.20
2023-05-08T01:43:55.809Z,13.20
2023-05-08T01:46:28.207Z,13.20
2023-05-08T01:49:25.248Z,13.20
2023-05-08T01:52:13.064Z,13.10
2023-05-08T01:54:48.962Z,13.10
2023-05-08T01:57:18.574Z,13.10
2023-05-08T01:59:47.456Z,13.10
2023-05-08T02:02:15.090Z,13.10
2023-05-08T02:04:44.231Z,13.10
2023-05-08T02:07:11.218Z,13.10
2023-05-08T02:09:39.471Z,13.00
2023-05-08T02:12:08.529Z,13.00
2023-05-08T02:14:37.776Z,13.00
2023-05-08T02:17:06.708Z,13.00
2023-05-08T02:19:34.897Z,13.00
2023-05-08T02:22:02.866Z,13.00
2023-05-08T02:24:32.154Z,13.00
2023-05-08T02:27:00.420Z,13.10
2023-05-08T02:29:28.766Z,13.10
2023-05-08T02:31:57.470Z,13.10
2023-05-08T02:34:25.490Z,13.10
2023-05-08T02:36:53.711Z,13.10
2023-05-08T02:39:26.145Z,13.10
2023-05-08T02:41:52.970Z,13.10
2023-05-08T02:44:19.786Z,13.10
2023-05-08T02:47:22.274Z,13.10
2023-05-08T02:50:08.853Z,13.10
2023-05-08T02:52:44.529Z,13.10
2023-05-08T02:55:36.296Z,13.10
2023-05-08T02:58:22.411Z,13.10
2023-05-08T03:01:08.385Z,13.10
2023-05-08T03:03:45.713Z,13.10
2023-05-08T03:06:17.449Z,13.00
2023-05-08T03:08:45.896Z,13.00
2023-05-08T03:11:18.115Z,13.00
2023-05-08T03:13:48.100Z,12.90
2023-05-08T03:16:24.434Z,12.90
2023-05-08T03:19:01.782Z,12.80
2023-05-08T03:21:30.815Z,12.80
2023-05-08T03:24:00.950Z,12.80
2023-05-08T03:26:29.181Z,12.80
2023-05-08T03:28:57.760Z,12.80
2023-05-08T03:31:25.616Z,12.80
2023-05-08T03:33:54.607Z,12.80
2023-05-08T03:36:22.455Z,12.70
2023-05-08T03:38:50.397Z,12.70
2023-05-08T03:41:17.320Z,12.70
2023-05-08T03:43:44.399Z,12.60
2023-05-08T03:46:12.286Z,12.60
2023-05-08T03:48:39.844Z,12.60
2023-05-08T03:51:06.775Z,12.60
2023-05-08T03:53:33.837Z,12.50
2023-05-08T03:56:02.007Z,12.60
2023-05-08T03:58:50.960Z,12.50
2023-05-08T04:01:48.400Z,12.60
2023-05-08T04:04:42.367Z,12.60
2023-05-08T04:07:18.233Z,12.50
2023-05-08T04:10:21.883Z,12.50
2023-05-08T04:13:07.524Z,12.50
2023-05-08T04:16:04.026Z,12.50
2023-05-08T04:18:34.835Z,12.50
2023-05-08T04:21:03.399Z,12.50
2023-05-08T04:23:30.402Z,12.50
2023-05-08T04:25:58.282Z,12.50
2023-05-08T04:28:25.222Z,12.50
2023-05-08T04:30:52.285Z,12.50
2023-05-08T04:33:19.303Z,12.60
2023-05-08T04:35:46.169Z,12.60
2023-05-08T04:38:12.980Z,12.60
2023-05-08T04:40:39.787Z,12.60
2023-05-08T04:43:06.585Z,12.60
2023-05-08T04:45:33.368Z,12.70
2023-05-08T04:48:00.380Z,12.70
2023-05-08T04:50:27.191Z,12.60
2023-05-08T04:52:53.967Z,12.60
2023-05-08T04:55:20.682Z,12.60
2023-05-08T04:57:47.495Z,12.50
2023-05-08T05:00:14.902Z,12.50
2023-05-08T05:02:41.753Z,12.60
2023-05-08T05:05:08.805Z,12.60
2023-05-08T05:07:35.791Z,12.60
2023-05-08T05:10:02.701Z,12.60
2023-05-08T05:12:29.460Z,12.60
2023-05-08T05:14:56.261Z,12.60
2023-05-08T05:17:23.095Z,12.60
2023-05-08T05:19:51.506Z,12.60
2023-05-08T05:22:19.598Z,12.50
2023-05-08T05:24:46.601Z,12.50
2023-05-08T05:27:13.489Z,12.50
2023-05-08T05:29:40.283Z,12.50
2023-05-08T05:32:07.455Z,12.60
2023-05-08T05:34:34.371Z,12.60
2023-05-08T05:37:01.186Z,12.60
2023-05-08T05:39:27.991Z,12.50
2023-05-08T05:41:54.704Z,12.50
2023-05-08T05:44:21.441Z,12.40
2023-05-08T05:46:48.237Z,12.60
2023-05-08T05:49:15.024Z,12.60
2023-05-08T05:51:41.770Z,12.50
2023-05-08T05:54:08.547Z,12.50
2023-05-08T05:56:35.320Z,12.50
2023-05-08T05:59:02.155Z,12.60
2023-05-08T06:01:29.107Z,12.60
2023-05-08T06:03:56.088Z,12.60
2023-05-08T06:06:22.956Z,12.60
2023-05-08T06:08:49.721Z,12.60
2023-05-08T06:11:16.917Z,12.60
2023-05-08T06:13:44.291Z,12.70
2023-05-08T06:16:11.070Z,12.70
2023-05-08T06:18:37.848Z,12.60
2023-05-08T06:21:04.699Z,12.70
2023-05-08T06:23:31.638Z,12.70
2023-05-08T06:25:58.405Z,12.80
2023-05-08T06:28:26.973Z,12.80
2023-05-08T06:30:54.100Z,12.80
2023-05-08T06:33:21.060Z,12.90
2023-05-08T06:35:48.661Z,12.90
2023-05-08T06:38:15.559Z,13.00
2023-05-08T06:40:46.302Z,13.00
2023-05-08T06:43:13.574Z,13.00
2023-05-08T06:45:40.745Z,13.00
2023-05-08T06:48:07.795Z,13.10
2023-05-08T06:50:37.949Z,13.10
2023-05-08T06:53:05.272Z,13.10
2023-05-08T06:55:32.094Z,13.20
2023-05-08T06:57:59.040Z,13.10
2023-05-08T07:00:26.031Z,13.20
2023-05-08T07:02:52.967Z,13.20
2023-05-08T07:05:20.269Z,13.30
2023-05-08T07:07:47.249Z,13.40
2023-05-08T07:10:14.110Z,13.40
2023-05-08T07:12:41.312Z,13.40
2023-05-08T07:15:23.923Z,13.40
2023-05-08T07:17:52.644Z,13.50
2023-05-08T07:20:19.500Z,13.50
2023-05-08T07:22:47.528Z,13.60
2023-05-08T07:25:14.531Z,13.50
2023-05-08T07:27:41.845Z,13.50
2023-05-08T07:30:09.419Z,13.40
2023-05-08T07:32:36.323Z,13.40
2023-05-08T07:35:03.764Z,13.50
2023-05-08T07:37:30.623Z,13.40
2023-05-08T07:39:57.553Z,13.40
2023-05-08T07:42:24.443Z,13.30
2023-05-08T07:44:54.775Z,13.30
2023-05-08T07:47:22.391Z,13.30
2023-05-08T07:49:49.254Z,13.30
2023-05-08T07:52:15.981Z,13.30
2023-05-08T07:54:43.758Z,13.40
2023-05-08T07:57:11.059Z,13.40
2023-05-08T07:59:37.744Z,13.40
2023-05-08T08:02:04.552Z,13.60
2023-05-08T08:04:31.549Z,13.70
2023-05-08T08:06:58.477Z,13.80
2023-05-08T08:09:25.560Z,13.90
2023-05-08T08:11:53.245Z,14.00
2023-05-08T08:14:20.089Z,14.10
2023-05-08T08:16:46.982Z,14.10
2023-05-08T08:19:13.738Z,14.20
2023-05-08T08:21:44.347Z,14.30
2023-05-08T08:24:11.151Z,14.40
2023-05-08T08:26:37.922Z,14.40
2023-05-08T08:29:04.789Z,14.50
2023-05-08T08:31:31.636Z,14.50
2023-05-08T08:33:58.392Z,14.60
2023-05-08T08:36:25.157Z,14.70
2023-05-08T08:38:52.420Z,14.80
2023-05-08T08:41:19.317Z,14.90
2023-05-08T08:43:46.098Z,15.10
2023-05-08T08:46:17.999Z,15.30
2023-05-08T08:48:47.779Z,15.40
2023-05-08T08:51:47.593Z,15.60
2023-05-08T08:54:17.676Z,15.70
2023-05-08T08:56:47.241Z,15.70
2023-05-08T08:59:16.068Z,15.80
2023-05-08T09:01:48.368Z,15.70
2023-05-08T09:04:16.875Z,15.80
2023-05-08T09:06:45.223Z,15.80
2023-05-08T09:09:14.303Z,15.80
2023-05-08T09:11:42.163Z,15.90
2023-05-08T09:14:09.603Z,15.90
2023-05-08T09:16:36.468Z,16.00
2023-05-08T09:19:04.611Z,16.10
2023-05-08T09:21:32.383Z,16.30
2023-05-08T09:24:03.935Z,16.40
2023-05-08T09:26:39.647Z,16.70
2023-05-08T09:29:19.950Z,17.00
2023-05-08T09:31:50.729Z,17.20
2023-05-08T09:34:33.032Z,17.10
2023-05-08T09:37:05.765Z,17.20
2023-05-08T09:39:32.481Z,17.20
2023-05-08T09:42:04.465Z,17.30
2023-05-08T09:44:52.549Z,17.10
2023-05-08T09:47:22.621Z,16.90
2023-05-08T09:50:08.437Z,16.80
2023-05-08T09:52:39.403Z,16.80
2023-05-08T09:55:09.435Z,17.00
2023-05-08T09:57:40.098Z,17.10
2023-05-08T10:00:12.758Z,17.20
2023-05-08T10:02:42.729Z,17.10
2023-05-08T10:05:34.578Z,17.20
2023-05-08T10:08:22.102Z,17.40
2023-05-08T10:10:49.356Z,17.30
2023-05-08T10:13:16.287Z,17.30
2023-05-08T10:15:44.150Z,17.10
2023-05-08T10:18:14.350Z,17.00
2023-05-08T10:20:44.310Z,16.80
2023-05-08T10:23:17.312Z,16.60
2023-05-08T10:25:47.193Z,16.50
2023-05-08T10:28:30.855Z,16.50
2023-05-08T10:31:05.257Z,16.60
2023-05-08T10:33:34.803Z,16.50
2023-05-08T10:36:01.933Z,16.50
2023-05-08T10:38:31.863Z,16.50
2023-05-08T10:41:01.110Z,16.50
2023-05-08T10:43:30.881Z,16.50
2023-05-08T10:45:59.182Z,16.50
2023-05-08T10:49:00.866Z,16.50
2023-05-08T10:51:55.702Z,16.50
2023-05-08T10:54:48.736Z,16.90
2023-05-08T10:57:16.602Z,17.00
2023-05-08T10:59:47.206Z,17.10
2023-05-08T11:02:15.440Z,17.30
2023-05-08T11:04:43.880Z,17.40
2023-05-08T11:07:11.402Z,17.40
2023-05-08T11:09:41.005Z,17.30
2023-05-08T11:12:20.960Z,17.20
2023-05-08T11:15:06.061Z,17.00
2023-05-08T11:17:34.054Z,17.10
2023-05-08T11:20:04.437Z,17.00
2023-05-08T11:22:33.283Z,17.00
2023-05-08T11:25:09.738Z,17.10
2023-05-08T11:27:40.644Z,16.90
2023-05-08T11:30:32.502Z,16.90
2023-05-08T11:33:08.302Z,16.90
2023-05-08T11:35:46.497Z,16.90
2023-05-08T11:38:34.200Z,16.80
2023-05-08T11:41:22.212Z,16.90
2023-05-08T11:44:04.669Z,16.90
2023-05-08T11:46:53.982Z,16.90
2023-05-08T11:49:28.226Z,16.80
2023-05-08T11:51:59.115Z,16.80
2023-05-08T11:54:30.683Z,16.60
2023-05-08T11:56:59.425Z,16.50
2023-05-08T11:59:26.633Z,16.60
2023-05-08T12:04:23.118Z,16.80
2023-05-08T12:06:51.318Z,17.00
2023-05-08T12:09:20.322Z,17.00
2023-05-08T12:11:47.216Z,17.00
2023-05-08T12:14:17.956Z,17.00
2023-05-08T12:16:44.774Z,17.00
2023-05-08T12:19:13.328Z,17.10
2023-05-08T12:21:48.614Z,17.10
2023-05-08T12:24:22.551Z,17.00
2023-05-08T12:26:50.312Z,16.90
2023-05-08T12:29:19.559Z,16.90
2023-05-08T12:31:46.514Z,16.90
2023-05-08T12:34:13.860Z,16.80
2023-05-08T12:36:40.693Z,16.80
2023-05-08T12:39:16.435Z,16.90
2023-05-08T12:41:53.128Z,16.80
2023-05-08T12:44:25.592Z,16.80
2023-05-08T12:46:54.415Z,16.80
2023-05-08T12:49:31.380Z,16.80
2023-05-08T12:52:17.919Z,16.80
2023-05-08T12:54:49.395Z,16.60
2023-05-08T12:57:19.469Z,16.40
2023-05-08T12:59:46.810Z,16.40
2023-05-08T13:02:23.880Z,16.40
2023-05-08T13:04:55.811Z,16.40
2023-05-08T13:07:22.698Z,16.40
2023-05-08T13:10:04.540Z,16.40
2023-05-08T13:12:31.978Z,16.40
2023-05-08T13:14:58.709Z,16.50
2023-05-08T13:17:25.477Z,16.60
2023-05-08T13:19:52.228Z,16.70
2023-05-08T13:22:22.861Z,16.70
2023-05-08T13:24:49.622Z,16.90
2023-05-08T13:27:16.458Z,17.10
2023-05-08T13:29:43.191Z,17.20
2023-05-08T13:32:10.054Z,17.30
2023-05-08T13:34:41.527Z,17.40
2023-05-08T13:37:14.251Z,17.40
2023-05-08T13:39:42.293Z,17.50
2023-05-08T13:42:09.053Z,17.50
2023-05-08T13:44:35.758Z,17.70
2023-05-08T13:47:02.673Z,17.70
2023-05-08T13:49:29.393Z,17.70
2023-05-08T13:51:57.177Z,17.70
2023-05-08T13:54:24.245Z,17.60
2023-05-08T13:56:51.045Z,17.60
2023-05-08T13:59:17.776Z,17.60
2023-05-08T14:01:44.554Z,17.50
2023-05-08T14:04:11.531Z,17.60
2023-05-08T14:06:38.442Z,17.60
2023-05-08T14:09:05.340Z,17.60
2023-05-08T14:11:32.083Z,17.70
2023-05-08T14:13:58.855Z,17.60
2023-05-08T14:16:25.684Z,17.70
2023-05-08T14:18:52.457Z,17.70
2023-05-08T14:21:19.184Z,17.80
2023-05-08T14:23:46.016Z,18.10
2023-05-08T14:26:12.713Z,18.70
2023-05-08T14:28:39.404Z,19.10
2023-05-08T14:31:06.272Z,19.50
2023-05-08T14:33:33.195Z,19.80
2023-05-08T14:35:59.913Z,19.90
2023-05-08T14:38:26.636Z,20.00
2023-05-08T14:40:54.354Z,20.00
2023-05-08T14:43:21.825Z,20.00
2023-05-08T14:45:49.161Z,19.50
2023-05-08T14:48:15.955Z,19.30
2023-05-08T14:50:42.783Z,19.10
2023-05-08T14:53:09.614Z,18.90
2023-05-08T14:55:37.191Z,18.90
2023-05-08T14:58:04.846Z,19.00
2023-05-08T15:00:31.617Z,19.10
2023-05-08T15:02:58.466Z,19.20
2023-05-08T15:05:25.695Z,19.10
2023-05-08T15:07:53.062Z,19.10
2023-05-08T15:10:19.884Z,19.30
2023-05-08T15:12:46.731Z,19.40
2023-05-08T15:15:13.674Z,19.60
2023-05-08T15:17:41.419Z,19.80
2023-05-08T15:20:11.491Z,20.10
2023-05-08T15:22:38.240Z,19.80
2023-05-08T15:25:06.097Z,19.60
2023-05-08T15:27:33.119Z,19.40
2023-05-08T15:29:59.946Z,19.20
2023-05-08T15:32:26.792Z,19.10
2023-05-08T15:34:53.568Z,18.90
2023-05-08T15:37:20.373Z,18.90
2023-05-08T15:39:47.118Z,18.80
2023-05-08T15:42:14.091Z,18.80
2023-05-08T15:44:54.752Z,18.60
2023-05-08T15:47:23.191Z,18.40
2023-05-08T15:49:51.056Z,18.20
2023-05-08T15:52:19.539Z,18.00
2023-05-08T15:54:47.087Z,17.90
2023-05-08T15:57:13.987Z,18.00
2023-05-08T15:59:40.999Z,17.90
2023-05-08T16:02:08.527Z,17.90
2023-05-08T16:04:36.467Z,17.90
2023-05-08T16:07:03.300Z,18.00
2023-05-08T16:09:30.048Z,18.00
2023-05-08T16:11:57.014Z,18.00
2023-05-08T16:14:23.802Z,17.80
2023-05-08T16:16:50.684Z,17.80
2023-05-08T16:19:17.435Z,17.80
2023-05-08T16:21:48.079Z,17.80
2023-05-08T16:24:15.095Z,17.80
2023-05-08T16:26:45.871Z,17.70
2023-05-08T16:29:12.791Z,17.80
2023-05-08T16:31:39.586Z,17.90
2023-05-08T16:34:06.370Z,17.80
2023-05-08T16:36:33.115Z,17.90
2023-05-08T16:38:59.818Z,18.00
2023-05-08T16:41:27.774Z,18.10
2023-05-08T16:43:54.616Z,18.30
2023-05-08T16:46:29.569Z,18.70
2023-05-08T16:48:57.468Z,18.90
2023-05-08T16:51:24.193Z,19.10
2023-05-08T16:53:50.920Z,19.10
2023-05-08T16:56:18.073Z,19.20
2023-05-08T16:58:44.918Z,19.60
2023-05-08T17:01:11.741Z,19.90
2023-05-08T17:03:38.689Z,20.20
2023-05-08T17:06:09.455Z,20.30
2023-05-08T17:08:36.871Z,20.10
2023-05-08T17:11:03.736Z,20.10
2023-05-08T17:13:30.675Z,19.90
2023-05-08T17:15:58.239Z,19.50
2023-05-08T17:18:25.046Z,19.30
2023-05-08T17:20:51.786Z,19.10
2023-05-08T17:23:18.563Z,18.90
2023-05-08T17:25:45.382Z,18.80
2023-05-08T17:28:12.182Z,18.60
2023-05-08T17:30:40.032Z,18.40
2023-05-08T17:33:07.124Z,18.20
2023-05-08T17:35:34.218Z,18.00
2023-05-08T17:38:01.113Z,17.80
2023-05-08T17:40:28.733Z,17.70
2023-05-08T17:42:55.561Z,17.70
2023-05-08T17:45:22.412Z,17.60
2023-05-08T17:47:49.307Z,17.50
2023-05-08T17:50:16.070Z,17.40
2023-05-08T17:52:43.003Z,17.20
2023-05-08T17:55:10.498Z,17.10
2023-05-08T17:57:38.314Z,17.00
2023-05-08T18:00:06.166Z,16.80
2023-05-08T18:02:32.979Z,16.70
2023-05-08T18:04:59.822Z,16.60
2023-05-08T18:07:26.570Z,16.60
2023-05-08T18:09:53.320Z,16.40
2023-05-08T18:12:20.041Z,16.40
2023-05-08T18:14:47.814Z,16.30
2023-05-08T18:17:22.326Z,16.30
2023-05-08T18:19:49.211Z,16.30
2023-05-08T18:22:16.014Z,16.10
2023-05-08T18:24:45.489Z,16.00
2023-05-08T18:27:12.854Z,15.90
2023-05-08T18:29:39.872Z,15.70
2023-05-08T18:32:06.689Z,15.60
2023-05-08T18:34:33.499Z,15.40
2023-05-08T18:37:00.302Z,15.30
2023-05-08T18:39:27.043Z,15.20
2023-05-08T18:41:53.788Z,15.10
2023-05-08T18:44:20.590Z,15.00
2023-05-08T18:46:47.395Z,14.90
2023-05-08T18:49:14.161Z,14.70
2023-05-08T18:51:42.162Z,14.60
2023-05-08T18:54:08.932Z,14.50
2023-05-08T18:56:35.693Z,14.30
2023-05-08T18:59:03.716Z,14.30
2023-05-08T19:01:30.455Z,14.10
2023-05-08T19:03:57.298Z,14.00
2023-05-08T19:06:24.152Z,14.00
2023-05-08T19:08:51.986Z,13.90
2023-05-08T19:11:18.940Z,13.80
2023-05-08T19:13:45.693Z,13.70
2023-05-08T19:16:13.475Z,13.60
2023-05-08T19:18:40.244Z,13.60
2023-05-08T19:21:07.565Z,13.50
2023-05-08T19:23:34.313Z,13.50
2023-05-08T19:26:01.061Z,13.40
2023-05-08T19:28:27.975Z,13.30
2023-05-08T19:30:54.752Z,13.30
2023-05-08T19:33:21.576Z,13.30
2023-05-08T19:35:48.484Z,13.30
2023-05-08T19:38:15.835Z,13.30
2023-05-08T19:40:55.554Z,13.40
2023-05-08T19:43:24.195Z,13.40
2023-05-08T19:45:51.002Z,13.40
2023-05-08T19:48:19.934Z,13.40
2023-05-08T19:50:46.842Z,13.40
2023-05-08T19:53:13.647Z,13.50
2023-05-08T19:55:40.476Z,13.50
2023-05-08T19:58:07.620Z,13.50
2023-05-08T20:00:34.515Z,13.50
2023-05-08T20:03:06.155Z,13.50
2023-05-08T20:05:33.082Z,13.50
2023-05-08T20:07:59.968Z,13.50
2023-05-08T20:10:26.744Z,13.50
2023-05-08T20:12:53.556Z,13.50
2023-05-08T20:15:20.418Z,13.60
2023-05-08T20:17:47.205Z,13.50
2023-05-08T20:20:14.120Z,13.50
2023-05-08T20:22:40.992Z,13.50
2023-05-08T20:25:08.270Z,13.50
2023-05-08T20:27:35.070Z,13.50
2023-05-08T20:30:01.853Z,13.50
2023-05-08T20:32:28.607Z,13.50
2023-05-08T20:34:55.418Z,13.50
2023-05-08T20:37:22.123Z,13.50
2023-05-08T20:39:48.852Z,13.50
2023-05-08T20:42:16.357Z,13.50
2023-05-08T20:44:43.067Z,13.50
2023-05-08T20:47:09.856Z,13.50
2023-05-08T20:49:36.688Z,13.50
2023-05-08T20:52:05.384Z,13.50
2023-05-08T20:54:32.191Z,13.50
2023-05-08T20:56:59.218Z,13.50
2023-05-08T20:59:26.004Z,13.50
2023-05-08T21:01:52.731Z,13.50
2023-05-08T21:04:19.522Z,13.50
2023-05-08T21:06:46.445Z,13.50
2023-05-08T21:09:13.134Z,13.50
2023-05-08T21:11:39.943Z,13.50
2023-05-08T21:14:06.892Z,13.50
2023-05-08T21:16:33.592Z,13.50
2023-05-08T21:19:00.311Z,13.40
2023-05-08T21:21:27.817Z,13.50
2023-05-08T21:23:54.604Z,13.50
2023-05-08T21:26:23.457Z,13.50
2023-05-08T21:28:52.235Z,13.50
2023-05-08T21:31:19.533Z,13.50
2023-05-08T21:33:46.647Z,13.50
2023-05-08T21:36:13.436Z,13.50
2023-05-08T21:38:41.215Z,13.50
2023-05-08T21:41:08.556Z,13.50
2023-05-08T21:43:36.372Z,13.50
2023-05-08T21:46:07.254Z,13.50
2023-05-08T21:48:34.348Z,13.50
2023-05-08T21:51:01.680Z,13.50
2023-05-08T21:53:28.751Z,13.50
2023-05-08T21:55:55.558Z,13.50
2023-05-08T21:58:22.351Z,13.50
2023-05-08T22:00:49.137Z,13.50
2023-05-08T22:03:16.037Z,13.50
2023-05-08T22:05:42.786Z,13.50
2023-05-08T22:08:09.573Z,13.50
2023-05-08T22:10:36.374Z,13.40
2023-05-08T22:13:03.443Z,13.40
2023-05-08T22:15:31.090Z,13.40
2023-05-08T22:17:59.151Z,13.40
2023-05-08T22:20:26.139Z,13.40
2023-05-08T22:22:52.935Z,13.40
2023-05-08T22:25:21.563Z,13.40
2023-05-08T22:27:48.386Z,13.50
2023-05-08T22:30:15.205Z,13.40
2023-05-08T22:32:42.626Z,13.50
2023-05-08T22:35:09.653Z,13.50
2023-05-08T22:37:36.775Z,13.40
2023-05-08T22:40:03.859Z,13.40
2023-05-08T22:42:30.667Z,13.40
2023-05-08T22:44:57.434Z,13.40
2023-05-08T22:47:25.732Z,13.40
2023-05-08T22:49:52.519Z,13.40
2023-05-08T22:52:19.222Z,13.40
2023-05-08T22:54:46.102Z,13.40
2023-05-08T22:57:14.136Z,13.40
2023-05-08T22:59:40.883Z,13.40
2023-05-08T23:02:07.629Z,13.40
2023-05-08T23:04:34.500Z,13.40
2023-05-08T23:07:02.673Z,13.40
2023-05-08T23:09:30.747Z,13.40
2023-05-08T23:11:57.488Z,13.40
2023-05-08T23:14:24.325Z,13.40
2023-05-08T23:16:51.096Z,13.30
2023-05-08T23:19:17.832Z,13.30
2023-05-08T23:21:44.665Z,13.40
2023-05-08T23:24:11.382Z,13.40
2023-05-08T23:26:39.519Z,13.30
2023-05-08T23:29:07.472Z,13.30
2023-05-08T23:31:35.023Z,13.30
2023-05-08T23:34:01.767Z,13.30
2023-05-08T23:36:28.511Z,13.30
2023-05-08T23:38:55.261Z,13.30
2023-05-08T23:41:22.048Z,13.30
2023-05-08T23:43:50.898Z,13.30
2023-05-08T23:46:17.716Z,13.20
2023-05-08T23:48:44.482Z,13.20
2023-05-08T23:51:11.180Z,13.20
2023-05-08T23:53:37.941Z,13.10
2023-05-08T23:56:05.268Z,13.10
2023-05-08T23:58:32.008Z,13.10
